Time;durP1;ratioP1;P1;durP2;ratioP2;P2;SDS_P1;SDS_P2;PMS_P1;PMS_P2;Temp;Humidity;BMP_temperature;BMP_pressure;BME280_temperature;BME280_humidity;BME280_pressure;Samples;Min_cycle;Max_cycle;Signal;HPM_P1;HPM_P2
2022/09/18 00:01:15;;;;;;;5.83;5.42;;;;;;;12.65;100.00;98848.45;1742525;81;21000;-73
2022/09/18 00:03:42;;;;;;;7.53;5.75;;;;;;;12.65;100.00;98855.67;1739940;82;21045;-71
2022/09/18 00:06:13;;;;;;;5.53;5.10;;;;;;;12.62;100.00;98841.44;1740524;80;21059;-71
2022/09/18 00:08:42;;;;;;;5.35;4.97;;;;;;;12.64;100.00;98840.17;1713874;82;21065;-71
2022/09/18 00:11:13;;;;;;;5.45;5.05;;;;;;;12.69;100.00;98838.64;1736769;81;21002;-73
2022/09/18 00:13:42;;;;;;;5.97;5.47;;;;;;;12.71;100.00;98837.34;1734519;81;21003;-72
2022/09/18 00:16:13;;;;;;;5.65;5.25;;;;;;;12.71;100.00;98846.69;1736798;82;20957;-71
2022/09/18 00:18:40;;;;;;;6.30;5.87;;;;;;;12.73;100.00;98849.13;1756113;80;20992;-70
2022/09/18 00:21:15;;;;;;;6.00;5.50;;;;;;;12.72;100.00;98840.84;1753725;80;21028;-70
2022/09/18 00:23:43;;;;;;;6.00;5.58;;;;;;;12.72;100.00;98849.67;1724302;81;21128;-72
2022/09/18 00:26:11;;;;;;;5.30;4.90;;;;;;;12.73;100.00;98842.45;1700664;83;21053;-72
2022/09/18 00:28:38;;;;;;;5.60;5.17;;;;;;;12.76;100.00;98841.98;1708517;82;21003;-71
2022/09/18 00:31:07;;;;;;;;;;;;;;;12.76;100.00;98832.09;1745108;81;21070;-73
2022/09/18 00:33:36;;;;;;;5.75;5.30;;;;;;;12.76;100.00;98835.30;1710683;82;20107;-72
2022/09/18 00:36:05;;;;;;;6.33;5.72;;;;;;;12.71;100.00;98827.17;1741524;81;21012;-72
2022/09/18 00:38:33;;;;;;;6.45;5.90;;;;;;;12.70;100.00;98818.89;1741633;81;21606;-72
2022/09/18 00:41:01;;;;;;;6.08;5.55;;;;;;;12.70;100.00;98813.54;1745664;81;21488;-72
2022/09/18 00:43:32;;;;;;;6.00;5.55;;;;;;;12.69;100.00;98812.70;1744777;81;21020;-70
2022/09/18 00:46:11;;;;;;;7.80;5.42;;;;;;;12.69;100.00;98808.70;1745688;81;20973;-71
2022/09/18 00:48:49;;;;;;;6.22;5.72;;;;;;;12.70;100.00;98812.20;1711422;82;21524;-71
2022/09/18 00:51:17;;;;;;;6.08;5.47;;;;;;;12.69;100.00;98805.22;1742442;81;21430;-74
2022/09/18 00:53:52;;;;;;;6.53;5.95;;;;;;;12.69;100.00;98807.36;1739967;81;20978;-70
2022/09/18 00:56:19;;;;;;;5.90;5.40;;;;;;;12.69;100.00;98796.67;1733665;81;21054;-72
2022/09/18 00:58:45;;;;;;;;;;;;;;;12.70;100.00;98788.14;1713119;83;20966;-70
2022/09/18 01:01:12;;;;;;;5.97;5.58;;;;;;;12.69;100.00;98782.50;1742389;81;20184;-74
2022/09/18 01:03:38;;;;;;;7.15;6.65;;;;;;;12.64;100.00;98783.23;1738656;81;21489;-70
2022/09/18 01:06:30;;;;;;;6.05;5.65;;;;;;;12.66;100.00;98777.12;1765098;80;21109;-71
2022/09/18 01:09:34;;;;;;;5.47;5.17;;;;;;;12.67;100.00;98778.72;1750508;79;20971;-73
2022/09/18 01:12:29;;;;;;;6.05;5.65;;;;;;;12.65;100.00;98780.30;1732362;82;20980;-79
2022/09/18 01:15:13;;;;;;;6.15;5.35;;;;;;;12.64;100.00;98774.68;1700794;84;21085;-71
2022/09/18 01:18:00;;;;;;;4.97;4.70;;;;;;;12.64;100.00;98774.68;1732658;81;20985;-71
2022/09/18 01:20:50;;;;;;;5.95;5.50;;;;;;;12.65;100.00;98769.59;1735772;81;21035;-68
2022/09/18 01:23:46;;;;;;;5.80;4.75;;;;;;;12.66;100.00;98765.89;1720307;82;21557;-69
2022/09/18 01:26:37;;;;;;;5.45;5.05;;;;;;;12.67;100.00;98762.69;1752684;81;20976;-69
2022/09/18 01:29:36;;;;;;;4.92;4.50;;;;;;;12.68;100.00;98757.64;1735846;81;21472;-66
2022/09/18 01:32:11;;;;;;;5.12;4.72;;;;;;;12.67;100.00;98745.31;1708289;82;21033;-66
2022/09/18 01:34:51;;;;;;;5.70;4.97;;;;;;;12.66;100.00;98743.17;1740481;81;21126;-78
2022/09/18 01:37:47;;;;;;;5.85;5.40;;;;;;;12.66;100.00;98735.69;1733230;81;21067;-68
2022/09/18 01:40:37;;;;;;;5.78;5.37;;;;;;;12.66;100.00;98732.48;1740029;80;21032;-67
2022/09/18 01:43:08;;;;;;;5.72;5.33;;;;;;;12.66;100.00;98724.45;1759030;80;21536;-67
2022/09/18 01:45:43;;;;;;;6.60;6.10;;;;;;;12.66;100.00;98716.44;1754457;80;21019;-66
2022/09/18 01:48:19;;;;;;;4.70;4.30;;;;;;;12.65;100.00;98709.99;1702704;82;21081;-68
2022/09/18 01:50:50;;;;;;;5.20;4.85;;;;;;;12.63;100.00;98692.86;1711933;83;21323;-70
2022/09/18 01:53:25;;;;;;;6.12;5.50;;;;;;;12.62;100.00;98691.25;1744125;81;21047;-67
2022/09/18 01:56:08;;;;;;;6.75;6.25;;;;;;;12.61;100.00;98692.28;1740150;81;21001;-66
2022/09/18 01:58:36;;;;;;;6.85;6.28;;;;;;;12.61;100.00;98692.28;1682460;84;21118;-67
2022/09/18 02:01:11;;;;;;;7.42;6.72;;;;;;;12.64;100.00;98691.81;1703054;82;20981;-67
2022/09/18 02:03:45;;;;;;;8.05;7.45;;;;;;;12.64;100.00;98689.67;1772750;79;21095;-66
2022/09/18 02:06:25;;;;;;;8.10;7.50;;;;;;;12.64;100.00;98685.13;1743652;80;21554;-67
2022/09/18 02:08:54;;;;;;;6.12;5.55;;;;;;;12.65;100.00;98677.91;1736673;81;20971;-72
2022/09/18 02:11:23;;;;;;;6.35;5.75;;;;;;;12.69;100.00;98670.23;1732468;81;21065;-66
2022/09/18 02:14:05;;;;;;;7.20;6.50;;;;;;;12.68;100.00;98660.57;1723789;81;20958;-68
2022/09/18 02:16:53;;;;;;;8.03;6.17;;;;;;;12.64;100.00;98652.25;1714357;81;21040;-67
2022/09/18 02:19:28;;;;;;;7.45;6.30;;;;;;;12.55;100.00;98650.50;1681314;84;21164;-66
2022/09/18 02:21:57;;;;;;;6.80;6.25;;;;;;;12.52;100.00;98656.85;1697444;83;21096;-69
2022/09/18 02:24:29;;;;;;;7.35;6.75;;;;;;;12.46;100.00;98659.97;1707319;83;21202;-67
2022/09/18 02:26:57;;;;;;;7.05;6.45;;;;;;;12.44;100.00;98662.88;1727662;81;20995;-67
2022/09/18 02:29:27;;;;;;;6.97;6.47;;;;;;;12.45;100.00;98661.00;1717229;81;21047;-67
2022/09/18 02:31:54;;;;;;;7.40;6.85;;;;;;;12.47;100.00;98660.27;1747319;81;21125;-68
2022/09/18 02:34:20;;;;;;;7.83;7.00;;;;;;;12.45;100.00;98659.16;1749735;81;21501;-68
2022/09/18 02:37:21;;;;;;;7.40;6.78;;;;;;;12.44;100.00;98652.72;1753088;81;21029;-68
2022/09/18 02:40:16;;;;;;;8.33;7.45;;;;;;;12.42;100.00;98649.48;1750573;81;21129;-67
2022/09/18 02:43:20;;;;;;;6.60;6.20;;;;;;;12.42;100.00;98642.80;1748678;81;21030;-68
2022/09/18 02:46:07;;;;;;;8.70;7.72;;;;;;;12.44;100.00;98635.34;1751930;81;21029;-68
2022/09/18 02:49:00;;;;;;;7.42;6.70;;;;;;;12.45;100.00;98623.59;1755470;81;21071;-71
2022/09/18 02:51:47;;;;;;;8.28;7.58;;;;;;;12.43;100.00;98607.83;1750900;81;21071;-68
2022/09/18 02:54:19;;;;;;;7.62;7.08;;;;;;;12.38;100.00;98603.73;1742353;81;21070;-67
2022/09/18 02:57:00;;;;;;;6.80;6.30;;;;;;;12.36;100.00;98586.33;1749216;81;21019;-69
2022/09/18 02:59:35;;;;;;;7.50;5.60;;;;;;;12.33;100.00;98584.94;1755671;81;21008;-69
2022/09/18 03:02:01;;;;;;;6.65;6.15;;;;;;;12.27;100.00;98576.03;1757505;81;20998;-68
2022/09/18 03:04:29;;;;;;;6.83;6.33;;;;;;;12.23;100.00;98577.57;1755079;81;21051;-68
2022/09/18 03:06:58;;;;;;;6.25;5.75;;;;;;;12.24;100.00;98569.86;1744805;81;21038;-67
2022/09/18 03:09:26;;;;;;;6.92;6.42;;;;;;;12.22;100.00;98563.95;1754922;81;21054;-67
2022/09/18 03:11:54;;;;;;;5.83;5.47;;;;;;;12.22;100.00;98562.61;1745452;81;21025;-66
2022/09/18 03:14:21;;;;;;;6.90;6.40;;;;;;;12.21;100.00;98558.31;1759121;81;21617;-65
2022/09/18 03:16:47;;;;;;;7.10;6.42;;;;;;;12.18;100.00;98553.44;1759700;81;21506;-67
2022/09/18 03:19:14;;;;;;;7.37;6.85;;;;;;;12.16;100.00;98553.41;1748339;81;21550;-68
2022/09/18 03:21:42;;;;;;;6.85;6.35;;;;;;;12.15;100.00;98550.44;1740848;80;21037;-67
2022/09/18 03:24:12;;;;;;;9.93;6.55;;;;;;;12.17;100.00;98550.50;1731117;81;21121;-67
2022/09/18 03:26:40;;;;;;;7.28;6.67;;;;;;;12.20;100.00;98551.33;1707664;83;21079;-67
2022/09/18 03:29:12;;;;;;;6.42;5.80;;;;;;;12.23;100.00;98538.84;1705425;84;21608;-68
2022/09/18 03:31:40;;;;;;;6.87;6.22;;;;;;;12.25;100.00;98516.70;1723968;82;21012;-66
2022/09/18 03:34:07;;;;;;;6.42;5.92;;;;;;;12.27;100.00;98517.80;1712538;83;21012;-67
2022/09/18 03:36:34;;;;;;;6.35;5.92;;;;;;;12.25;100.00;98515.36;1716717;83;20986;-68
2022/09/18 03:39:02;;;;;;;7.08;6.47;;;;;;;12.22;100.00;98509.69;1694996;82;21096;-76
2022/09/18 03:41:29;;;;;;;5.40;5.10;;;;;;;12.21;100.00;98507.56;1684638;83;20994;-67
2022/09/18 03:43:56;;;;;;;6.25;5.58;;;;;;;12.21;100.00;98508.89;1713199;82;21034;-67
2022/09/18 03:46:23;;;;;;;5.75;5.45;;;;;;;12.24;100.00;98508.92;1707438;81;21606;-68
2022/09/18 03:48:52;;;;;;;5.65;5.25;;;;;;;12.24;100.00;98499.06;1754887;81;21538;-69
2022/09/18 03:51:19;;;;;;;4.70;4.40;;;;;;;12.27;100.00;98507.91;1746664;82;20984;-67
2022/09/18 03:53:50;;;;;;;5.87;5.47;;;;;;;12.29;100.00;98502.33;1733971;81;20985;-69
2022/09/18 03:56:30;;;;;;;5.40;5.08;;;;;;;12.29;100.00;98502.33;1668869;81;20997;-68
2022/09/18 03:58:59;;;;;;;5.72;5.28;;;;;;;12.29;100.00;98509.55;1736894;81;21525;-67
2022/09/18 04:01:30;;;;;;;5.42;4.92;;;;;;;12.25;100.00;98489.19;1788539;78;21019;-66
2022/09/18 04:04:01;;;;;;;5.53;5.15;;;;;;;12.24;100.00;98491.55;1756237;78;20993;-72
2022/09/18 04:06:29;;;;;;;5.40;5.10;;;;;;;12.22;100.00;98481.65;1800617;79;21084;-67
2022/09/18 04:09:07;;;;;;;5.85;5.35;;;;;;;12.21;100.00;98482.72;1785387;79;20996;-67
2022/09/18 04:11:34;;;;;;;5.00;4.70;;;;;;;12.18;100.00;98477.31;1770223;79;21013;-66
2022/09/18 04:14:01;;;;;;;4.97;4.62;;;;;;;12.15;100.00;98471.15;1770047;80;20941;-69
2022/09/18 04:16:28;;;;;;;5.20;4.70;;;;;;;12.12;100.00;98470.29;1734829;81;21046;-66
2022/09/18 04:18:54;;;;;;;5.00;4.70;;;;;;;12.09;100.00;98462.75;1740369;81;21037;-66
2022/09/18 04:21:21;;;;;;;4.90;4.58;;;;;;;12.07;100.00;98454.18;1765961;80;20969;-66
2022/09/18 04:23:51;;;;;;;4.55;4.25;;;;;;;12.08;100.00;98462.48;1765185;80;21503;-67
2022/09/18 04:26:18;;;;;;;3.90;3.72;;;;;;;12.07;100.00;98447.50;1773306;80;21005;-77
2022/09/18 04:28:46;;;;;;;4.12;3.83;;;;;;;12.05;100.00;98437.59;1754971;80;21094;-77
2022/09/18 04:31:13;;;;;;;3.85;3.65;;;;;;;12.04;100.00;98437.33;1741204;81;20982;-76
2022/09/18 04:33:39;;;;;;;;;;;;;;;12.03;100.00;98425.02;1768298;80;20946;-75
2022/09/18 04:36:07;;;;;;;;;;;;;;;12.01;100.00;98425.79;1734610;81;20199;-79
2022/09/18 04:38:34;;;;;;;5.23;3.40;;;;;;;11.95;100.00;98421.44;1757609;80;20102;-80
2022/09/18 04:41:00;;;;;;;2.90;2.80;;;;;;;11.89;100.00;98416.52;1764802;80;22111;-78
2022/09/18 04:43:27;;;;;;;4.62;3.08;;;;;;;11.87;100.00;98415.41;1770584;79;21005;-79
2022/09/18 04:45:54;;;;;;;2.72;2.60;;;;;;;11.88;100.00;98401.03;1742444;80;20958;-80
2022/09/18 04:48:21;;;;;;;3.37;3.17;;;;;;;11.87;100.00;98395.39;1763998;79;22182;-80
2022/09/18 04:50:48;;;;;;;3.42;3.22;;;;;;;11.87;100.00;98394.06;1766653;79;21011;-80
2022/09/18 04:53:18;;;;;;;1.85;1.75;;;;;;;11.87;100.00;98400.73;1769571;79;21155;-78
2022/09/18 04:55:46;;;;;;;1.67;1.67;;;;;;;11.88;100.00;98393.02;1764606;79;20953;-81
2022/09/18 04:58:15;;;;;;;2.22;1.40;;;;;;;11.89;100.00;98383.14;1754322;79;21273;-81
2022/09/18 05:00:43;;;;;;;1.70;1.70;;;;;;;11.90;100.00;98391.45;1754644;80;21631;-83
2022/09/18 05:03:09;;;;;;;2.90;1.37;;;;;;;11.91;100.00;98396.28;1771420;80;20981;-80
2022/09/18 05:05:37;;;;;;;1.22;1.22;;;;;;;11.93;100.00;98388.30;1795973;78;21101;-78
2022/09/18 05:08:05;;;;;;;1.52;1.47;;;;;;;11.93;100.00;98381.62;1790226;78;21532;-78
2022/09/18 05:10:32;;;;;;;1.62;1.52;;;;;;;11.95;100.00;98378.72;1795521;78;21043;-78
2022/09/18 05:12:58;;;;;;;1.30;1.30;;;;;;;11.97;100.00;98376.61;1767630;79;20921;-78
2022/09/18 05:15:25;;;;;;;1.42;1.42;;;;;;;11.98;100.00;98379.55;1770151;80;20996;-80
2022/09/18 05:18:05;;;;;;;2.05;1.95;;;;;;;11.99;100.00;98374.50;1786155;78;20996;-80
2022/09/18 05:20:34;;;;;;;1.72;1.72;;;;;;;11.99;100.00;98373.96;1788333;78;20922;-81
2022/09/18 05:23:02;;;;;;;1.80;1.80;;;;;;;11.99;100.00;98353.14;1791181;78;21058;-81
2022/09/18 05:25:29;;;;;;;2.00;1.90;;;;;;;11.99;100.00;98342.46;1791841;78;20968;-80
2022/09/18 05:27:59;;;;;;;2.15;2.05;;;;;;;11.99;100.00;98341.13;1799622;78;20982;-80
2022/09/18 05:30:29;;;;;;;2.10;2.00;;;;;;;11.98;100.00;98332.82;1764948;81;20991;-77
2022/09/18 05:33:04;;;;;;;2.70;2.60;;;;;;;11.61;100.00;98268.77;1766848;80;20973;-80
2022/09/18 05:35:33;;;;;;;2.67;2.58;;;;;;;11.98;100.00;98347.00;1770894;80;21425;-81
2022/09/18 05:38:01;;;;;;;2.52;2.42;;;;;;;11.97;100.00;98340.03;1772924;79;21060;-80
2022/09/18 05:40:34;;;;;;;2.60;2.50;;;;;;;11.96;100.00;98340.27;1767844;80;20985;-80
2022/09/18 05:43:04;;;;;;;4.10;3.20;;;;;;;11.97;100.00;98344.56;1765546;80;21023;-77
2022/09/18 05:45:31;;;;;;;3.65;3.40;;;;;;;11.99;100.00;98325.10;1764562;80;21479;-75
2022/09/18 05:48:02;;;;;;;3.60;3.30;;;;;;;11.98;100.00;98322.14;1769636;80;21012;-75
2022/09/18 05:50:30;;;;;;;4.10;3.87;;;;;;;11.99;100.00;98310.42;1788241;78;21480;-74
2022/09/18 05:53:04;;;;;;;3.80;3.50;;;;;;;12.00;100.00;98302.70;1792706;78;20996;-75
2022/09/18 05:55:33;;;;;;;4.35;4.05;;;;;;;12.00;100.00;98304.04;1777987;79;21096;-74
2022/09/18 05:58:03;;;;;;;4.53;4.22;;;;;;;11.99;100.00;98308.55;1765054;80;21014;-75
2022/09/18 06:00:33;;;;;;;4.78;4.47;;;;;;;12.01;100.00;98308.31;1776617;79;21021;-74
2022/09/18 06:03:05;;;;;;;4.42;4.12;;;;;;;12.01;100.00;98301.09;1770738;79;21096;-74
2022/09/18 06:05:34;;;;;;;4.90;4.50;;;;;;;12.02;100.00;98296.58;1791599;79;21524;-76
2022/09/18 06:08:03;;;;;;;4.55;3.92;;;;;;;12.02;100.00;98301.92;1791903;79;21531;-76
2022/09/18 06:10:36;;;;;;;4.40;4.17;;;;;;;12.06;100.00;98295.03;1784644;78;21463;-74
2022/09/18 06:13:14;;;;;;;4.15;3.85;;;;;;;12.08;100.00;98294.25;1784602;78;20996;-76
2022/09/18 06:15:44;;;;;;;4.37;4.08;;;;;;;12.10;100.00;98289.47;1764720;79;21461;-75
2022/09/18 06:18:13;;;;;;;4.78;4.45;;;;;;;12.11;100.00;98284.42;1736335;81;20959;-75
2022/09/18 06:20:41;;;;;;;4.35;4.15;;;;;;;12.14;100.00;98284.44;1732419;80;20969;-74
2022/09/18 06:23:09;;;;;;;4.75;4.45;;;;;;;12.17;100.00;98281.28;1745393;80;21081;-75
2022/09/18 06:25:37;;;;;;;5.83;5.33;;;;;;;12.18;100.00;98273.00;1731483;81;21006;-75
2022/09/18 06:28:05;;;;;;;4.85;4.50;;;;;;;12.19;100.00;98277.30;1772138;79;21085;-75
2022/09/18 06:30:33;;;;;;;;;;;;;;;12.19;100.00;98243.91;1743277;81;21080;-74
2022/09/18 06:33:04;;;;;;;5.45;4.40;;;;;;;12.21;100.00;98255.69;1748415;80;20158;-75
2022/09/18 06:35:37;;;;;;;4.67;4.22;;;;;;;12.18;100.00;98258.31;1760325;80;20985;-74
2022/09/18 06:38:05;;;;;;;4.28;3.72;;;;;;;12.18;100.00;98251.63;1737535;81;20999;-74
2022/09/18 06:40:37;;;;;;;4.28;3.98;;;;;;;12.18;100.00;98245.49;1763879;80;21149;-76
2022/09/18 06:43:08;;;;;;;4.97;4.67;;;;;;;12.19;100.00;98240.44;1789207;79;21061;-75
2022/09/18 06:45:53;;;;;;;4.28;4.00;;;;;;;12.18;100.00;98234.27;1764002;80;21025;-75
2022/09/18 06:48:25;;;;;;;5.22;4.55;;;;;;;12.18;100.00;98236.94;1764020;80;21050;-76
2022/09/18 06:50:58;;;;;;;5.33;4.97;;;;;;;12.19;100.00;98230.56;1762340;80;21035;-77
2022/09/18 06:53:25;;;;;;;5.75;5.25;;;;;;;12.18;100.00;98223.59;1767554;80;21551;-74
2022/09/18 06:55:59;;;;;;;6.70;6.17;;;;;;;12.21;100.00;98227.64;1765827;80;22003;-75
2022/09/18 06:58:25;;;;;;;6.65;6.12;;;;;;;12.22;100.00;98223.90;1759143;80;21024;-75
2022/09/18 07:00:52;;;;;;;7.35;6.78;;;;;;;12.25;100.00;98231.42;1763611;80;22366;-68
2022/09/18 07:03:21;;;;;;;6.78;6.22;;;;;;;12.27;100.00;98231.44;1769757;80;21029;-68
2022/09/18 07:06:09;;;;;;;6.00;5.60;;;;;;;12.30;100.00;98222.64;1766509;80;20957;-69
2022/09/18 07:08:41;;;;;;;5.58;5.17;;;;;;;12.29;100.00;98233.86;1769850;80;20980;-70
2022/09/18 07:11:09;;;;;;;6.92;6.30;;;;;;;12.25;100.00;98234.89;1776763;79;21622;-68
2022/09/18 07:13:36;;;;;;;7.25;6.65;;;;;;;12.25;100.00;98236.77;1763142;79;21524;-68
2022/09/18 07:16:05;;;;;;;6.28;5.75;;;;;;;12.25;100.00;98229.55;1749266;80;21068;-68
2022/09/18 07:18:32;;;;;;;6.62;6.12;;;;;;;12.29;100.00;98233.06;1749749;80;20953;-68
2022/09/18 07:22:09;;;;;;;6.37;5.97;;;;;;;12.38;100.00;98224.88;1709260;76;22240;-72
2022/09/18 07:24:37;;;;;;;6.10;5.70;;;;;;;12.36;100.00;98217.11;1666527;84;21018;-69
2022/09/18 07:27:04;;;;;;;5.62;5.12;;;;;;;12.39;100.00;98209.11;1658868;84;21156;-70
2022/09/18 07:29:31;;;;;;;6.33;5.75;;;;;;;12.41;100.00;98195.80;1666338;83;20976;-68
2022/09/18 07:31:58;;;;;;;5.60;5.20;;;;;;;12.43;100.00;98204.36;1649605;84;21031;-73
2022/09/18 07:42:00;;;;;;;5.85;5.45;;;;;;;12.42;100.00;98163.20;1772763;76;22674;-90
2022/09/18 07:44:30;;;;;;;6.53;5.92;;;;;;;12.36;100.00;98158.88;1752425;80;21045;-87
2022/09/18 07:46:58;;;;;;;7.12;5.60;;;;;;;12.41;100.00;98154.90;1758755;80;21541;-88
2022/09/18 07:49:24;;;;;;;5.22;4.83;;;;;;;12.45;100.00;98150.14;1764749;79;20992;-87
2022/09/18 07:51:52;;;;;;;4.87;4.58;;;;;;;12.51;100.00;98148.83;1760526;80;21020;-88
2022/09/18 07:54:18;;;;;;;5.72;5.30;;;;;;;12.55;100.00;98152.09;1801379;78;20969;-88
2022/09/18 07:56:52;;;;;;;5.55;5.00;;;;;;;12.59;100.00;98154.53;1775198;78;21022;-89
2022/09/18 07:59:28;;;;;;;5.12;4.72;;;;;;;12.63;100.00;98152.95;1817313;78;21016;-88
2022/09/18 08:01:57;;;;;;;4.97;4.58;;;;;;;12.65;100.00;98158.84;1714624;81;22550;-86
2022/09/18 08:04:24;;;;;;;5.08;4.58;;;;;;;12.69;100.00;98154.34;1699578;83;21640;-87
2022/09/18 08:07:02;;;;;;;4.08;3.77;;;;;;;12.72;100.00;98147.16;1736127;81;21028;-87
2022/09/18 08:09:29;;;;;;;3.83;3.62;;;;;;;12.75;100.00;98151.46;1732762;81;20985;-86
2022/09/18 08:12:03;;;;;;;5.22;4.78;;;;;;;12.75;100.00;98148.79;1741623;81;21001;-83
2022/09/18 08:14:48;;;;;;;5.58;5.17;;;;;;;12.76;100.00;98149.58;1701781;82;21495;-89
2022/09/18 08:17:22;;;;;;;5.15;4.75;;;;;;;12.77;100.00;98155.19;1713341;82;20966;-85
2022/09/18 08:19:50;;;;;;;4.22;3.92;;;;;;;12.81;100.00;98159.78;1675110;84;21059;-86
2022/09/18 08:22:27;;;;;;;5.25;4.78;;;;;;;12.86;100.00;98169.70;1709746;83;21001;-89
2022/09/18 08:24:55;;;;;;;6.55;5.35;;;;;;;12.92;100.00;98163.34;1710573;82;21050;-86
2022/09/18 08:27:21;;;;;;;12.95;9.68;;;;;;;12.97;100.00;98167.91;1721929;82;21052;-87
2022/09/18 08:29:48;;;;;;;;;;;;;;;12.98;100.00;98159.64;1728677;82;21059;-86
2022/09/18 08:32:15;;;;;;;11.10;7.95;;;;;;;12.99;100.00;98154.55;1715161;81;20116;-88
2022/09/18 08:34:45;;;;;;;9.80;6.78;;;;;;;12.98;100.00;98152.16;1720951;82;21020;-85
2022/09/18 08:37:13;;;;;;;8.48;7.35;;;;;;;13.04;100.00;98151.91;1741886;81;21017;-86
2022/09/18 08:39:41;;;;;;;29.52;16.42;;;;;;;13.11;100.00;98141.00;1773454;80;21024;-89
2022/09/18 08:42:27;;;;;;;27.37;16.35;;;;;;;13.13;100.00;98133.53;1747916;80;21060;-88
2022/09/18 08:45:18;;;;;;;23.05;13.45;;;;;;;12.86;100.00;98086.81;1747742;81;21583;-89
2022/09/18 08:47:52;;;;;;;31.52;13.32;;;;;;;13.15;100.00;98121.23;1747533;82;20990;-91
2022/09/18 08:50:35;;;;;;;22.37;14.07;;;;;;;13.17;100.00;98115.09;1742334;82;21031;-90
2022/09/18 08:53:16;;;;;;;23.57;13.50;;;;;;;13.19;100.00;98102.27;1703790;83;21037;-88
2022/09/18 08:55:52;;;;;;;28.60;14.53;;;;;;;13.24;100.00;98098.25;1673699;83;21029;-89
2022/09/18 08:58:43;;;;;;;25.92;15.90;;;;;;;13.30;100.00;98106.62;1684064;85;21067;-90
2022/09/18 09:01:43;;;;;;;17.02;12.25;;;;;;;13.33;100.00;98096.72;1718083;83;21053;-87
2022/09/18 09:04:22;;;;;;;21.68;12.88;;;;;;;13.36;100.00;98097.55;1709968;83;21172;-88
2022/09/18 09:07:06;;;;;;;14.55;10.23;;;;;;;13.40;100.00;98089.27;1681029;83;21063;-88
2022/09/18 09:09:43;;;;;;;11.97;9.00;;;;;;;13.41;100.00;98090.06;1725470;82;21029;-88
2022/09/18 09:12:22;;;;;;;12.30;8.95;;;;;;;13.46;100.00;98091.97;1729186;81;21056;-91
2022/09/18 09:15:40;;;;;;;12.80;9.13;;;;;;;13.50;100.00;98094.39;1702330;84;21018;-90
2022/09/18 09:18:21;;;;;;;11.10;8.35;;;;;;;13.59;100.00;98083.45;1690065;84;21075;-91
2022/09/18 09:20:56;;;;;;;10.10;9.10;;;;;;;13.65;100.00;98075.70;1660374;83;21480;-85
2022/09/18 09:23:50;;;;;;;15.55;9.95;;;;;;;13.71;100.00;98076.52;1717693;83;21035;-86
2022/09/18 09:26:21;;;;;;;9.43;7.90;;;;;;;13.76;100.00;98078.67;1720709;81;20994;-77
2022/09/18 09:28:58;;;;;;;13.83;8.95;;;;;;;13.80;100.00;98070.38;1707014;81;21552;-83
2022/09/18 09:31:42;;;;;;;12.20;9.33;;;;;;;13.85;100.00;98063.45;1696808;83;21367;-79
2022/09/18 09:34:39;;;;;;;11.28;8.35;;;;;;;13.93;100.00;98057.55;1683613;83;21028;-78
2022/09/18 09:37:16;;;;;;;10.10;9.10;;;;;;;13.99;100.00;98060.50;1698443;83;20989;-76
2022/09/18 09:39:51;;;;;;;12.60;10.20;;;;;;;14.01;100.00;98064.54;1699293;83;21119;-76
2022/09/18 09:42:35;;;;;;;13.90;10.35;;;;;;;14.05;100.00;98067.46;1719895;83;21081;-77
2022/09/18 09:45:27;;;;;;;11.60;8.15;;;;;;;14.08;100.00;98059.45;1704485;82;21111;-76
2022/09/18 09:48:26;;;;;;;8.90;8.10;;;;;;;14.12;100.00;98055.95;1704539;82;21019;-76
2022/09/18 09:51:04;;;;;;;9.38;8.40;;;;;;;14.16;100.00;98055.69;1734272;81;21119;-76
2022/09/18 09:53:31;;;;;;;12.03;7.90;;;;;;;14.19;100.00;98055.16;1709331;84;21545;-78
2022/09/18 09:56:27;;;;;;;13.05;7.80;;;;;;;14.27;100.00;98057.05;1710271;82;21038;-77
2022/09/18 09:59:29;;;;;;;8.63;7.90;;;;;;;14.30;100.00;98064.02;1708636;84;21029;-78
2022/09/18 10:02:50;;;;;;;12.68;8.08;;;;;;;14.33;100.00;98073.37;1709553;84;21021;-79
2022/09/18 10:05:50;;;;;;;10.60;8.18;;;;;;;14.32;100.00;98064.55;1711233;81;21061;-75
2022/09/18 10:08:22;;;;;;;11.20;8.95;;;;;;;14.30;100.00;98064.55;1713877;82;21062;-75
2022/09/18 10:11:01;;;;;;;11.10;9.20;;;;;;;14.26;100.00;98066.14;1730708;82;21005;-75
2022/09/18 10:13:36;;;;;;;12.25;8.93;;;;;;;14.28;100.00;98071.52;1661714;85;21041;-75
2022/09/18 10:16:28;;;;;;;11.93;9.33;;;;;;;14.33;100.00;98068.02;1673874;83;21067;-75
2022/09/18 10:18:57;;;;;;;10.95;9.10;;;;;;;14.39;100.00;98058.90;1711815;82;21015;-75
2022/09/18 10:21:33;;;;;;;10.50;9.48;;;;;;;14.42;100.00;98058.37;1714537;81;21072;-75
2022/09/18 10:24:18;;;;;;;11.40;10.23;;;;;;;14.45;100.00;98053.00;1685249;84;21074;-80
2022/09/18 10:26:57;;;;;;;10.98;10.03;;;;;;;14.46;100.00;98052.73;1678548;84;21133;-79
2022/09/18 10:29:23;;;;;;;11.03;10.03;;;;;;;14.45;100.00;98053.83;1711227;83;21657;-77
2022/09/18 10:31:58;;;;;;;11.10;10.15;;;;;;;14.47;100.00;98059.72;1703151;83;21080;-79
2022/09/18 10:34:39;;;;;;;13.45;9.85;;;;;;;14.47;100.00;98057.04;1723144;83;21831;-80
2022/09/18 10:37:30;;;;;;;10.60;9.60;;;;;;;14.47;100.00;98060.27;1723188;82;21120;-79
2022/09/18 10:40:00;;;;;;;12.40;11.08;;;;;;;14.49;100.00;98058.91;1723449;83;21566;-78
2022/09/18 10:42:31;;;;;;;11.63;10.28;;;;;;;14.48;100.00;98057.83;1721620;83;21581;-77
2022/09/18 10:45:04;;;;;;;10.63;9.53;;;;;;;14.48;100.00;98054.61;1733055;81;21114;-76
2022/09/18 10:47:35;;;;;;;11.05;9.93;;;;;;;14.50;100.00;98047.64;1757707;81;21010;-78
2022/09/18 10:50:16;;;;;;;10.98;9.98;;;;;;;14.52;100.00;98050.34;1725285;81;20990;-83
2022/09/18 10:52:45;;;;;;;12.55;10.95;;;;;;;14.53;100.00;98048.45;1713193;82;21012;-78
2022/09/18 10:55:21;;;;;;;13.05;11.85;;;;;;;14.53;100.00;98043.89;1724825;83;21041;-76
2022/09/18 10:58:00;;;;;;;11.20;10.05;;;;;;;14.55;100.00;98048.44;1720227;82;20951;-78
2022/09/18 11:00:36;;;;;;;12.90;11.80;;;;;;;14.58;100.00;98051.17;1712826;82;21071;-80
2022/09/18 11:03:32;;;;;;;12.55;11.25;;;;;;;14.53;100.00;98048.45;1720331;82;21014;-77
2022/09/18 11:06:18;;;;;;;12.30;11.00;;;;;;;14.48;100.00;98050.59;1708499;82;21034;-80
2022/09/18 11:08:51;;;;;;;11.88;10.68;;;;;;;14.42;100.00;98044.97;1722476;82;21045;-79
2022/09/18 11:11:29;;;;;;;13.68;12.35;;;;;;;14.40;100.00;98034.52;1720983;83;21073;-81
2022/09/18 11:14:04;;;;;;;13.72;12.33;;;;;;;14.43;100.00;98028.34;1722337;82;21482;-88
2022/09/18 11:16:44;;;;;;;18.27;16.55;;;;;;;14.44;100.00;98016.02;1733501;82;21006;-68
2022/09/18 11:19:28;;;;;;;15.35;13.88;;;;;;;14.47;100.00;98004.77;1735603;81;21003;-70
2022/09/18 11:22:00;;;;;;;13.90;12.40;;;;;;;14.54;100.00;98007.98;1727327;81;21076;-73
2022/09/18 11:24:33;;;;;;;14.18;12.70;;;;;;;14.56;100.00;98007.69;1723848;82;21074;-69
2022/09/18 11:27:22;;;;;;;15.15;13.65;;;;;;;14.57;100.00;97996.73;1749468;81;21053;-72
2022/09/18 11:29:49;;;;;;;15.08;13.22;;;;;;;14.59;100.00;97989.76;1739168;81;21018;-71
2022/09/18 11:32:24;;;;;;;15.60;14.10;;;;;;;14.63;100.00;97994.05;1739537;81;21065;-69
2022/09/18 11:34:57;;;;;;;20.08;14.35;;;;;;;14.68;100.00;97992.15;1725799;81;20943;-68
2022/09/18 11:37:36;;;;;;;15.85;14.33;;;;;;;14.71;100.00;97985.43;1736150;81;21060;-70
2022/09/18 11:40:09;;;;;;;16.02;14.53;;;;;;;14.74;100.00;97986.23;1736004;81;21042;-70
2022/09/18 11:42:43;;;;;;;15.60;14.18;;;;;;;14.73;100.00;97973.37;1717307;81;21026;-67
2022/09/18 11:45:36;;;;;;;15.50;14.10;;;;;;;14.76;100.00;97970.67;1727760;81;21536;-67
2022/09/18 11:48:10;;;;;;;16.25;13.98;;;;;;;14.80;100.00;97962.34;1742570;81;21026;-68
2022/09/18 11:50:38;;;;;;;16.42;14.85;;;;;;;14.84;100.00;97966.08;1739773;81;21034;-69
2022/09/18 11:53:20;;;;;;;14.18;12.68;;;;;;;14.78;100.00;97962.61;1755593;80;21033;-69
2022/09/18 11:56:19;;;;;;;15.13;13.78;;;;;;;14.68;100.00;97956.50;1747670;80;20974;-68
2022/09/18 11:58:56;;;;;;;14.07;12.80;;;;;;;14.60;100.00;97950.62;1754829;80;21026;-68
2022/09/18 12:01:40;;;;;;;14.18;12.73;;;;;;;14.59;100.00;97941.50;1747817;80;20993;-68
2022/09/18 12:04:51;;;;;;;14.83;13.45;;;;;;;14.58;100.00;97921.95;1736139;81;21100;-71